Time;durP1;ratioP1;P1;durP2;ratioP2;P2;SDS_P1;SDS_P2;PMS_P1;PMS_P2;Temp;Humidity;BMP_temperature;BMP_pressure;BME280_temperature;BME280_humidity;BME280_pressure;Samples;Min_cycle;Max_cycle;Signal;HPM_P1;HPM_P2
2023/12/13 00:02:25;;;;;;;3.90;3.60;;;7.60;99.90;;;;;;5034127;28;20375;-64
2023/12/13 00:04:50;;;;;;;4.13;3.75;;;7.60;99.90;;;;;;5033876;28;20140;-64
2023/12/13 00:07:16;;;;;;;4.13;3.72;;;7.60;99.90;;;;;;5034237;28;20033;-64
2023/12/13 00:09:41;;;;;;;3.88;3.50;;;7.60;99.90;;;;;;5034195;28;20051;-64
2023/12/13 00:12:07;;;;;;;4.22;3.83;;;7.60;99.90;;;;;;5033881;28;20037;-64
2023/12/13 00:14:33;;;;;;;3.67;3.38;;;7.60;99.90;;;;;;5034060;28;20042;-64
2023/12/13 00:16:59;;;;;;;4.45;3.88;;;7.60;99.90;;;;;;5033551;28;20397;-65
2023/12/13 00:19:24;;;;;;;4.30;3.90;;;7.60;99.90;;;;;;5034016;28;20406;-65
2023/12/13 00:21:50;;;;;;;4.47;4.13;;;7.60;99.90;;;;;;5033918;28;20041;-65
2023/12/13 00:24:15;;;;;;;5.30;4.90;;;7.80;99.90;;;;;;5032720;28;20049;-65
2023/12/13 00:26:42;;;;;;;4.05;3.75;;;7.50;99.90;;;;;;5033825;28;20423;-64
2023/12/13 00:29:08;;;;;;;4.93;4.43;;;7.60;99.90;;;;;;5033865;28;20122;-65
2023/12/13 00:31:34;;;;;;;4.63;4.03;;;7.60;99.90;;;;;;5032242;28;20453;-64
2023/12/13 00:34:00;;;;;;;4.57;4.18;;;7.60;99.90;;;;;;5033782;28;20067;-65
2023/12/13 00:36:26;;;;;;;4.88;4.47;;;7.60;99.90;;;;;;5033354;28;20061;-64
2023/12/13 00:38:51;;;;;;;4.70;4.30;;;7.60;99.90;;;;;;5033620;28;20045;-64
2023/12/13 00:41:17;;;;;;;5.10;4.60;;;7.60;99.90;;;;;;5032048;28;20056;-64
2023/12/13 00:43:43;;;;;;;4.93;4.43;;;7.70;99.90;;;;;;5033523;28;20088;-64
2023/12/13 00:46:19;;;;;;;4.22;3.88;;;7.60;99.90;;;;;;5033434;28;20033;-64
2023/12/13 00:48:47;;;;;;;4.43;4.03;;;7.60;99.90;;;;;;5032225;28;20033;-63
2023/12/13 00:51:20;;;;;;;4.68;4.28;;;7.60;99.90;;;;;;5033385;28;20037;-64
2023/12/13 00:53:46;;;;;;;4.57;4.18;;;7.60;99.90;;;;;;5033402;28;20045;-64
2023/12/13 00:56:12;;;;;;;4.15;3.72;;;7.60;99.90;;;;;;5033256;28;20486;-64
2023/12/13 00:58:38;;;;;;;4.63;4.15;;;7.60;99.90;;;;;;5033260;28;20056;-64
2023/12/13 01:01:05;;;;;;;4.38;3.97;;;7.60;99.90;;;;;;5032917;28;20547;-67
2023/12/13 01:03:30;;;;;;;5.00;4.50;;;7.60;99.90;;;;;;5032842;28;20041;-68
2023/12/13 01:05:56;;;;;;;4.28;3.88;;;7.60;99.90;;;;;;5032998;28;20041;-64
2023/12/13 01:08:21;;;;;;;4.68;4.15;;;7.60;99.90;;;;;;5032719;28;20048;-64
2023/12/13 01:10:47;;;;;;;5.32;4.15;;;7.60;99.90;;;;;;5033003;28;20090;-64
2023/12/13 01:13:13;;;;;;;4.80;4.40;;;7.60;99.90;;;;;;5032990;28;20071;-64
2023/12/13 01:15:39;;;;;;;4.63;4.22;;;7.60;99.90;;;;;;5032718;28;20513;-64
2023/12/13 01:18:04;;;;;;;5.03;4.63;;;7.60;99.90;;;;;;5032887;28;20037;-64
2023/12/13 01:20:30;;;;;;;5.20;4.80;;;7.60;99.90;;;;;;5032817;28;20067;-64
2023/12/13 01:22:55;;;;;;;4.85;4.45;;;7.60;99.90;;;;;;5032832;28;20526;-64
2023/12/13 01:25:21;;;;;;;5.57;5.07;;;7.60;99.90;;;;;;5031222;28;20049;-64
2023/12/13 01:27:47;;;;;;;4.38;4.07;;;7.60;99.90;;;;;;5031577;28;20041;-64
2023/12/13 01:30:12;;;;;;;5.50;5.00;;;7.70;99.90;;;;;;5032651;28;20043;-64
2023/12/13 01:32:38;;;;;;;5.18;4.75;;;7.70;99.90;;;;;;5032403;28;20367;-64
2023/12/13 01:35:05;;;;;;;5.40;4.90;;;7.70;99.90;;;;;;5032419;28;20059;-64
2023/12/13 01:37:31;;;;;;;5.82;5.30;;;7.70;99.90;;;;;;5032307;28;20053;-64
2023/12/13 01:39:56;;;;;;;5.43;4.93;;;7.70;99.90;;;;;;5032857;28;20044;-64
2023/12/13 01:42:23;;;;;;;5.15;4.75;;;7.70;99.90;;;;;;5032446;28;20112;-63
2023/12/13 01:44:49;;;;;;;6.18;5.60;;;7.70;99.90;;;;;;5032493;28;20113;-64
2023/12/13 01:47:16;;;;;;;5.43;4.93;;;7.60;99.90;;;;;;5032514;28;20041;-64
2023/12/13 01:49:42;;;;;;;5.45;4.95;;;7.60;99.90;;;;;;5032673;28;20120;-64
2023/12/13 01:52:08;;;;;;;5.30;4.80;;;7.70;99.90;;;;;;5032098;28;20468;-64
2023/12/13 01:54:35;;;;;;;5.45;4.95;;;7.60;99.90;;;;;;5032331;28;20495;-64
2023/12/13 01:57:02;;;;;;;5.45;4.95;;;7.80;99.90;;;;;;5032316;28;20037;-64
2023/12/13 01:59:28;;;;;;;5.80;5.30;;;7.60;99.90;;;;;;5032285;28;20398;-64
2023/12/13 02:01:57;;;;;;;5.47;5.05;;;7.80;99.90;;;;;;5032522;28;20049;-63
2023/12/13 02:04:26;;;;;;;5.32;4.82;;;7.60;99.90;;;;;;5032132;28;20044;-64
2023/12/13 02:06:52;;;;;;;5.65;5.15;;;7.60;99.90;;;;;;5032076;28;20048;-64
2023/12/13 02:09:18;;;;;;;5.53;5.03;;;7.50;99.90;;;;;;5032209;28;20033;-63
2023/12/13 02:11:44;;;;;;;5.07;4.57;;;7.60;99.90;;;;;;5032135;28;20041;-64
2023/12/13 02:14:10;;;;;;;5.85;5.25;;;7.60;99.90;;;;;;5032106;28;20049;-64
2023/12/13 02:16:37;;;;;;;6.07;5.47;;;7.60;99.90;;;;;;5032113;28;20504;-64
2023/12/13 02:19:03;;;;;;;5.65;5.15;;;7.90;99.90;;;;;;5031882;28;20505;-65
2023/12/13 02:21:30;;;;;;;5.90;5.40;;;7.60;99.90;;;;;;5032017;28;20040;-64
2023/12/13 02:23:58;;;;;;;5.85;5.28;;;7.60;99.90;;;;;;5032087;28;20498;-64
2023/12/13 02:26:24;;;;;;;5.75;5.25;;;7.60;99.90;;;;;;5031942;28;20048;-64
2023/12/13 02:28:50;;;;;;;5.60;5.10;;;8.20;99.90;;;;;;5031988;28;20041;-64
2023/12/13 02:31:17;;;;;;;5.50;5.00;;;7.60;99.90;;;;;;5032253;28;20044;-65
2023/12/13 02:33:43;;;;;;;5.40;5.00;;;7.60;99.90;;;;;;5031769;28;20128;-64
2023/12/13 02:36:09;;;;;;;5.22;4.78;;;7.60;99.90;;;;;;5031732;28;20068;-64
2023/12/13 02:38:35;;;;;;;7.28;4.80;;;7.70;99.90;;;;;;5031957;28;20045;-64
2023/12/13 02:41:01;;;;;;;9.35;4.70;;;7.60;99.90;;;;;;5035524;28;20477;-65
2023/12/13 02:43:28;;;;;;;5.55;5.05;;;7.60;99.90;;;;;;5035878;28;20167;-65
2023/12/13 02:45:53;;;;;;;5.35;4.85;;;7.50;99.90;;;;;;5035728;28;20143;-64
2023/12/13 02:48:19;;;;;;;4.85;4.45;;;7.50;99.90;;;;;;5035764;28;20041;-65
2023/12/13 02:50:45;;;;;;;5.07;4.57;;;7.50;99.90;;;;;;5035682;28;20044;-65
2023/12/13 02:53:11;;;;;;;4.43;4.03;;;7.50;99.90;;;;;;5035594;28;20414;-65
2023/12/13 02:55:37;;;;;;;4.75;4.35;;;7.40;99.90;;;;;;5035514;28;20128;-65
2023/12/13 02:58:04;;;;;;;4.22;3.83;;;7.40;99.90;;;;;;5035332;28;20128;-64
2023/12/13 03:00:30;;;;;;;4.57;4.18;;;7.40;99.90;;;;;;5034191;28;20624;-64
2023/12/13 03:02:58;;;;;;;4.50;4.10;;;7.40;99.90;;;;;;5033901;28;20045;-64
2023/12/13 03:05:24;;;;;;;4.40;4.07;;;7.40;99.90;;;;;;5033756;28;20045;-64
2023/12/13 03:07:50;;;;;;;4.50;4.10;;;7.40;99.90;;;;;;5035041;28;20045;-64
2023/12/13 03:10:16;;;;;;;4.25;3.85;;;8.00;99.90;;;;;;5035333;28;20499;-64
2023/12/13 03:12:42;;;;;;;4.20;3.80;;;7.50;99.90;;;;;;5033967;28;20049;-64
2023/12/13 03:15:08;;;;;;;3.95;3.55;;;7.40;99.90;;;;;;5034966;28;20043;-65
2023/12/13 03:17:33;;;;;;;4.38;3.97;;;7.40;99.90;;;;;;5035167;28;20038;-63
2023/12/13 03:19:59;;;;;;;4.18;3.67;;;7.40;99.90;;;;;;5035136;28;20034;-64
2023/12/13 03:22:25;;;;;;;3.92;3.58;;;7.50;99.90;;;;;;5033566;28;20046;-64
2023/12/13 03:24:56;;;;;;;3.47;3.17;;;7.40;99.90;;;;;;5034697;28;20120;-64
2023/12/13 03:27:21;;;;;;;3.83;3.47;;;7.40;99.90;;;;;;5034938;28;20045;-64
2023/12/13 03:29:48;;;;;;;3.85;3.53;;;7.40;99.90;;;;;;5035029;28;20497;-64
2023/12/13 03:32:13;;;;;;;3.90;3.60;;;7.50;99.90;;;;;;5034942;28;20417;-64
2023/12/13 03:34:39;;;;;;;3.63;3.33;;;7.40;99.90;;;;;;5034913;28;20043;-64
2023/12/13 03:37:06;;;;;;;3.47;3.15;;;7.50;99.90;;;;;;5034468;28;20080;-64
2023/12/13 03:39:32;;;;;;;3.75;3.38;;;7.50;99.90;;;;;;5034728;28;20049;-64
2023/12/13 03:41:58;;;;;;;3.83;3.53;;;7.50;99.90;;;;;;5034854;28;20397;-64
2023/12/13 03:44:24;;;;;;;3.78;3.33;;;7.50;99.90;;;;;;5034732;28;20041;-64
2023/12/13 03:46:49;;;;;;;3.55;2.90;;;7.50;99.90;;;;;;5033179;28;20057;-65
2023/12/13 03:49:16;;;;;;;3.55;3.22;;;7.50;99.90;;;;;;5034605;28;20034;-64
2023/12/13 03:51:46;;;;;;;3.28;2.97;;;7.50;99.90;;;;;;5033536;28;20123;-65
2023/12/13 03:54:12;;;;;;;3.47;3.17;;;7.50;99.90;;;;;;5034458;28;20111;-65
2023/12/13 03:56:38;;;;;;;3.42;3.13;;;7.50;99.90;;;;;;5034491;28;20056;-64
2023/12/13 03:59:04;;;;;;;3.65;3.30;;;7.50;99.90;;;;;;5033014;28;20049;-64
2023/12/13 04:01:29;;;;;;;3.90;3.30;;;7.70;99.90;;;;;;5034323;28;20511;-64
2023/12/13 04:03:55;;;;;;;3.22;2.92;;;7.50;99.90;;;;;;5034043;28;20034;-64
2023/12/13 04:06:21;;;;;;;3.30;2.80;;;7.50;99.90;;;;;;5034110;28;20176;-64
2023/12/13 04:08:46;;;;;;;3.38;2.60;;;7.50;99.90;;;;;;5034655;28;20076;-64
2023/12/13 04:11:12;;;;;;;3.53;3.22;;;7.50;99.90;;;;;;5034236;28;20517;-64
2023/12/13 04:13:37;;;;;;;2.83;2.63;;;7.50;99.90;;;;;;5034123;28;20496;-64
2023/12/13 04:16:03;;;;;;;3.03;2.72;;;7.60;99.90;;;;;;5034054;28;20474;-64
2023/12/13 04:18:29;;;;;;;3.47;3.17;;;7.50;99.90;;;;;;5034008;28;20113;-63
2023/12/13 04:20:55;;;;;;;3.15;2.88;;;7.50;99.90;;;;;;5033787;28;20088;-64
2023/12/13 04:23:21;;;;;;;3.13;2.83;;;7.60;99.90;;;;;;5033662;28;20463;-64
2023/12/13 04:25:47;;;;;;;2.80;2.60;;;7.50;99.90;;;;;;5033550;28;20053;-64
2023/12/13 04:28:13;;;;;;;3.00;2.70;;;7.60;99.90;;;;;;5033821;28;20033;-63
2023/12/13 04:30:39;;;;;;;4.88;3.13;;;7.60;99.90;;;;;;5033867;28;20387;-63
2023/12/13 04:33:04;;;;;;;2.85;2.65;;;7.60;99.90;;;;;;5032588;28;20044;-64
2023/12/13 04:35:32;;;;;;;3.15;2.85;;;7.50;99.90;;;;;;5033324;28;20481;-64
2023/12/13 04:37:58;;;;;;;2.55;2.35;;;7.60;99.90;;;;;;5033713;28;20045;-64
2023/12/13 04:40:24;;;;;;;2.83;2.58;;;7.60;99.90;;;;;;5032096;28;20052;-64
2023/12/13 04:42:50;;;;;;;2.70;2.50;;;7.60;99.90;;;;;;5033635;28;20406;-64
2023/12/13 04:45:16;;;;;;;2.92;2.70;;;7.60;99.90;;;;;;5033413;28;20041;-64
2023/12/13 04:47:42;;;;;;;3.35;3.05;;;7.60;99.90;;;;;;5033554;28;20128;-65
2023/12/13 04:50:08;;;;;;;2.80;2.60;;;7.60;99.90;;;;;;5033492;28;20115;-64
2023/12/13 04:52:34;;;;;;;3.25;2.95;;;7.60;99.90;;;;;;5033348;28;20099;-65
2023/12/13 04:55:00;;;;;;;3.30;3.00;;;7.60;99.90;;;;;;5033126;28;20041;-65
2023/12/13 04:57:26;;;;;;;3.63;3.30;;;7.60;99.90;;;;;;5033277;28;20477;-65
2023/12/13 04:59:51;;;;;;;3.58;3.28;;;7.60;99.90;;;;;;5033576;28;20049;-64
2023/12/13 05:02:17;;;;;;;3.00;2.80;;;7.60;99.90;;;;;;5033065;28;20070;-65
2023/12/13 05:04:42;;;;;;;4.28;3.08;;;7.60;99.90;;;;;;5032871;28;20042;-65
2023/12/13 05:07:11;;;;;;;3.63;3.30;;;8.10;99.90;;;;;;5032971;28;20076;-65
2023/12/13 05:09:37;;;;;;;2.97;2.67;;;7.60;99.90;;;;;;5032825;28;20479;-65
2023/12/13 05:12:03;;;;;;;2.92;2.72;;;7.70;99.90;;;;;;5033002;28;20116;-65
2023/12/13 05:14:28;;;;;;;3.60;3.30;;;7.70;99.90;;;;;;5033055;28;20458;-65
2023/12/13 05:16:54;;;;;;;3.50;2.97;;;7.70;99.90;;;;;;5032849;28;20080;-64
2023/12/13 05:19:20;;;;;;;3.85;3.55;;;7.60;99.90;;;;;;5031544;28;20050;-64
2023/12/13 05:21:46;;;;;;;4.28;3.28;;;7.70;99.90;;;;;;5032900;28;20124;-64
2023/12/13 05:24:12;;;;;;;8.70;3.40;;;7.70;99.90;;;;;;5032809;28;20124;-64
2023/12/13 05:26:37;;;;;;;3.70;3.40;;;8.20;99.90;;;;;;5032751;28;20409;-64
2023/12/13 05:29:03;;;;;;;3.55;3.25;;;7.60;99.90;;;;;;5032753;28;20049;-63
2023/12/13 05:31:29;;;;;;;3.60;3.30;;;7.60;99.90;;;;;;5032748;28;20112;-63
2023/12/13 05:33:55;;;;;;;3.50;3.20;;;7.70;99.90;;;;;;5032674;28;20116;-64
2023/12/13 05:36:20;;;;;;;4.05;3.45;;;7.60;99.90;;;;;;5032269;28;20049;-64
2023/12/13 05:38:46;;;;;;;3.47;3.17;;;7.60;99.90;;;;;;5032605;28;20409;-63
2023/12/13 05:41:12;;;;;;;3.58;3.28;;;7.70;99.90;;;;;;5032589;28;20595;-64
2023/12/13 05:43:37;;;;;;;3.30;3.00;;;7.60;99.90;;;;;;5032582;28;20064;-64
2023/12/13 05:46:07;;;;;;;3.58;3.28;;;7.60;99.90;;;;;;5032027;28;20401;-64
2023/12/13 05:48:34;;;;;;;3.83;3.45;;;7.60;99.90;;;;;;5031146;28;20175;-64
2023/12/13 05:51:00;;;;;;;3.92;3.63;;;7.50;99.90;;;;;;5032431;28;20505;-64
2023/12/13 05:53:25;;;;;;;3.50;3.20;;;7.60;99.90;;;;;;5032468;28;20123;-64
2023/12/13 05:55:51;;;;;;;4.22;3.83;;;7.60;99.90;;;;;;5032375;28;20045;-64
2023/12/13 05:58:17;;;;;;;3.55;3.25;;;7.50;99.90;;;;;;5032449;28;20115;-64
2023/12/13 06:00:42;;;;;;;3.22;2.92;;;7.60;99.90;;;;;;5032001;28;20037;-64
2023/12/13 06:03:09;;;;;;;3.17;2.88;;;7.60;99.90;;;;;;5031972;28;20120;-64
2023/12/13 06:05:35;;;;;;;4.60;3.40;;;7.60;99.90;;;;;;5031860;28;20041;-64
2023/12/13 06:08:01;;;;;;;3.42;3.13;;;7.60;99.90;;;;;;5031905;28;20092;-64
2023/12/13 06:10:27;;;;;;;3.85;3.45;;;7.50;99.90;;;;;;5031933;28;20091;-70
2023/12/13 06:12:53;;;;;;;7.93;3.45;;;7.60;99.90;;;;;;5032128;28;20045;-64
2023/12/13 06:15:19;;;;;;;3.33;3.03;;;8.20;99.90;;;;;;5037687;28;20063;-70
2023/12/13 06:17:45;;;;;;;3.53;3.22;;;7.60;99.90;;;;;;5037483;28;20468;-68
2023/12/13 06:20:11;;;;;;;3.55;3.25;;;7.60;99.90;;;;;;5037142;28;20129;-65
2023/12/13 06:22:36;;;;;;;3.80;3.40;;;7.50;99.90;;;;;;5039031;28;20389;-65
2023/12/13 06:25:02;;;;;;;3.50;3.20;;;7.60;99.90;;;;;;5038625;28;20068;-71
2023/12/13 06:27:28;;;;;;;3.88;3.25;;;7.60;99.90;;;;;;5037067;28;20033;-66
2023/12/13 06:29:54;;;;;;;3.92;3.63;;;7.60;99.90;;;;;;5038381;28;20397;-66
2023/12/13 06:32:19;;;;;;;3.55;3.25;;;7.60;99.90;;;;;;5038331;28;20038;-66
2023/12/13 06:34:46;;;;;;;3.40;3.10;;;7.60;99.90;;;;;;5038100;28;20053;-69
2023/12/13 06:37:11;;;;;;;4.28;3.70;;;7.60;99.90;;;;;;5036921;28;20065;-65
2023/12/13 06:39:37;;;;;;;4.07;3.78;;;7.60;99.90;;;;;;5038608;28;20466;-65
2023/12/13 06:42:04;;;;;;;3.47;3.15;;;7.60;99.90;;;;;;5038497;28;20520;-65
2023/12/13 06:44:30;;;;;;;3.90;3.50;;;7.60;99.90;;;;;;5038241;28;20041;-66
2023/12/13 06:46:57;;;;;;;3.65;3.25;;;7.60;99.90;;;;;;5038063;28;20038;-65
2023/12/13 06:49:23;;;;;;;3.83;3.53;;;7.70;99.90;;;;;;5038222;28;20112;-65
2023/12/13 06:51:50;;;;;;;3.75;3.45;;;7.60;99.90;;;;;;5037093;28;20452;-66
2023/12/13 06:54:16;;;;;;;6.40;4.32;;;7.60;99.90;;;;;;5038305;28;20041;-65
2023/12/13 06:56:42;;;;;;;4.20;3.83;;;7.60;99.90;;;;;;5038311;28;20412;-65
2023/12/13 06:59:07;;;;;;;3.40;3.10;;;7.60;99.90;;;;;;5038044;28;20037;-65
2023/12/13 07:01:33;;;;;;;4.32;3.92;;;7.60;99.90;;;;;;5038177;28;20042;-65
2023/12/13 07:04:01;;;;;;;4.00;3.60;;;7.70;99.90;;;;;;5038392;28;20151;-65
2023/12/13 07:06:26;;;;;;;4.03;3.72;;;7.60;99.90;;;;;;5037940;28;20095;-65
2023/12/13 07:08:52;;;;;;;4.95;4.05;;;7.60;99.90;;;;;;5038220;28;20073;-64
2023/12/13 07:11:18;;;;;;;4.00;3.65;;;7.60;99.90;;;;;;5038253;28;20499;-64
2023/12/13 07:13:43;;;;;;;4.40;4.00;;;7.60;99.90;;;;;;5038203;28;20430;-64
2023/12/13 07:16:09;;;;;;;3.80;3.42;;;7.60;99.90;;;;;;5038152;28;20481;-64
2023/12/13 07:18:35;;;;;;;4.32;3.92;;;7.60;99.90;;;;;;5037781;28;20219;-64
2023/12/13 07:21:00;;;;;;;3.55;3.25;;;7.60;99.90;;;;;;5038127;28;20053;-64
2023/12/13 07:23:26;;;;;;;3.92;3.60;;;7.60;99.90;;;;;;5038164;28;20456;-64
2023/12/13 07:25:52;;;;;;;4.03;3.63;;;7.70;99.90;;;;;;5036182;28;20052;-65
2023/12/13 07:28:18;;;;;;;3.78;3.47;;;7.70;99.90;;;;;;5033413;28;20061;-64
2023/12/13 07:30:44;;;;;;;4.07;3.67;;;7.60;99.90;;;;;;5033416;28;20042;-64
2023/12/13 07:33:10;;;;;;;4.35;3.97;;;7.60;99.90;;;;;;5034905;28;20056;-64
2023/12/13 07:35:35;;;;;;;4.18;3.60;;;7.60;99.90;;;;;;5034606;28;20421;-64
2023/12/13 07:38:01;;;;;;;4.05;3.65;;;7.60;99.90;;;;;;5034542;28;20057;-64
2023/12/13 07:40:27;;;;;;;3.67;3.38;;;7.90;99.90;;;;;;5034535;28;20052;-64
2023/12/13 07:42:53;;;;;;;3.65;3.35;;;7.60;99.90;;;;;;5033493;28;20038;-64
2023/12/13 07:45:20;;;;;;;3.85;3.55;;;7.60;99.90;;;;;;5034537;28;20394;-64
2023/12/13 07:47:46;;;;;;;3.22;2.92;;;7.60;99.90;;;;;;5034503;28;20502;-65
2023/12/13 07:50:12;;;;;;;5.53;3.47;;;7.60;99.90;;;;;;5034267;28;20091;-64
2023/12/13 07:52:38;;;;;;;3.55;3.25;;;7.70;99.90;;;;;;5034571;28;20037;-64
2023/12/13 07:55:04;;;;;;;3.92;3.63;;;7.60;99.90;;;;;;5034479;28;20046;-64
2023/12/13 07:57:30;;;;;;;4.22;3.45;;;7.60;99.90;;;;;;5034350;28;20068;-65
2023/12/13 07:59:55;;;;;;;3.60;3.30;;;7.60;99.90;;;;;;5034182;28;20160;-64
2023/12/13 08:02:22;;;;;;;3.17;2.95;;;7.70;99.90;;;;;;5034344;28;20045;-64
2023/12/13 08:04:49;;;;;;;3.70;3.40;;;7.70;99.90;;;;;;5034332;28;20099;-64
2023/12/13 08:07:15;;;;;;;3.97;3.60;;;7.70;99.90;;;;;;5034163;28;20037;-64
2023/12/13 08:09:41;;;;;;;4.38;3.97;;;7.70;99.90;;;;;;5034014;28;20045;-64
2023/12/13 08:12:07;;;;;;;4.07;3.67;;;7.70;99.90;;;;;;5032566;28;20048;-64
2023/12/13 08:14:33;;;;;;;3.75;3.45;;;7.70;99.90;;;;;;5034093;28;20120;-64
2023/12/13 08:17:02;;;;;;;5.18;3.85;;;7.70;99.90;;;;;;5032549;28;20543;-66
2023/12/13 08:19:27;;;;;;;4.35;3.88;;;7.60;99.90;;;;;;5034047;28;20437;-64
2023/12/13 08:21:53;;;;;;;4.20;3.30;;;7.70;99.90;;;;;;5032367;28;20175;-64
2023/12/13 08:24:19;;;;;;;3.17;2.88;;;8.10;99.90;;;;;;5033988;28;20395;-65
2023/12/13 08:26:45;;;;;;;3.67;3.35;;;7.70;99.90;;;;;;5032220;28;20034;-64
2023/12/13 08:29:11;;;;;;;3.65;3.33;;;7.80;99.90;;;;;;5032634;28;20511;-64
2023/12/13 08:31:36;;;;;;;3.88;3.58;;;7.80;99.90;;;;;;5033914;28;20124;-64
2023/12/13 08:34:02;;;;;;;3.60;3.30;;;7.80;99.90;;;;;;5033769;28;20367;-64
2023/12/13 08:36:28;;;;;;;3.67;3.35;;;7.80;99.90;;;;;;5033002;28;20100;-64
2023/12/13 08:38:54;;;;;;;3.75;3.45;;;7.80;99.90;;;;;;5032275;28;20544;-64
2023/12/13 08:41:20;;;;;;;3.90;3.60;;;7.90;99.90;;;;;;5033403;28;20452;-64
2023/12/13 08:43:46;;;;;;;3.80;3.50;;;7.80;99.90;;;;;;5033494;28;20037;-64
2023/12/13 08:46:12;;;;;;;4.22;3.83;;;7.90;99.90;;;;;;5033482;28;20068;-64
2023/12/13 08:48:38;;;;;;;3.75;3.40;;;7.90;99.90;;;;;;5033490;28;20084;-64
2023/12/13 08:51:04;;;;;;;3.20;2.90;;;7.90;99.90;;;;;;5033462;28;20430;-64
2023/12/13 08:53:30;;;;;;;3.85;3.38;;;7.90;99.90;;;;;;5033062;28;20041;-64
2023/12/13 08:55:55;;;;;;;3.47;3.17;;;7.90;99.90;;;;;;5032233;28;20041;-64
2023/12/13 08:58:21;;;;;;;3.50;3.20;;;7.90;99.90;;;;;;5032989;28;20048;-64
2023/12/13 09:00:47;;;;;;;3.53;3.13;;;7.90;99.90;;;;;;5033257;28;20042;-65
2023/12/13 09:03:12;;;;;;;4.07;3.67;;;7.90;99.90;;;;;;5033198;28;20044;-63
2023/12/13 09:05:38;;;;;;;3.60;3.30;;;7.90;99.90;;;;;;5033189;28;20125;-63
2023/12/13 09:08:04;;;;;;;3.90;3.45;;;7.90;99.90;;;;;;5033120;28;20553;-63
2023/12/13 09:10:34;;;;;;;3.55;3.08;;;8.00;99.90;;;;;;5033121;28;20091;-63
2023/12/13 09:13:02;;;;;;;4.30;3.90;;;7.90;99.90;;;;;;5031710;28;20460;-63
2023/12/13 09:15:28;;;;;;;3.42;3.13;;;8.40;99.90;;;;;;5033075;28;20041;-63
2023/12/13 09:17:54;;;;;;;4.75;3.45;;;8.00;99.90;;;;;;5032987;28;20041;-63
2023/12/13 09:20:19;;;;;;;3.53;3.22;;;8.00;99.90;;;;;;5032909;28;20033;-63
2023/12/13 09:22:45;;;;;;;3.80;3.50;;;8.00;99.90;;;;;;5031615;28;20389;-63
2023/12/13 09:25:16;;;;;;;3.78;3.30;;;8.00;99.90;;;;;;5032744;28;20124;-63
2023/12/13 09:27:43;;;;;;;3.83;3.47;;;8.10;99.90;;;;;;5032742;28;20041;-63
2023/12/13 09:30:09;;;;;;;3.47;3.17;;;8.10;99.90;;;;;;5032613;28;20045;-63
2023/12/13 09:32:35;;;;;;;3.80;3.42;;;8.10;99.90;;;;;;5032787;28;20397;-63
2023/12/13 09:35:01;;;;;;;4.35;3.42;;;8.10;99.90;;;;;;5032194;28;20038;-63
2023/12/13 09:37:27;;;;;;;3.42;3.13;;;8.10;99.90;;;;;;5032679;28;20049;-63
2023/12/13 09:39:53;;;;;;;4.00;3.10;;;8.10;99.90;;;;;;5047997;28;20063;-63
2023/12/13 09:42:18;;;;;;;4.30;4.00;;;8.10;99.90;;;;;;5032532;28;20053;-64
2023/12/13 09:44:47;;;;;;;11.55;3.80;;;8.10;99.90;;;;;;5032201;28;20041;-64
2023/12/13 09:47:15;;;;;;;3.13;2.88;;;8.10;99.90;;;;;;5032171;28;20404;-64
2023/12/13 09:49:42;;;;;;;3.58;3.28;;;8.20;99.90;;;;;;5030371;28;20417;-63
2023/12/13 09:52:09;;;;;;;3.95;3.65;;;8.20;99.90;;;;;;5032435;28;20037;-66
2023/12/13 09:54:39;;;;;;;4.03;3.65;;;8.10;99.90;;;;;;5032094;28;20045;-63
2023/12/13 09:57:05;;;;;;;3.92;3.63;;;8.20;99.90;;;;;;5032005;28;20045;-63
2023/12/13 09:59:31;;;;;;;3.88;3.22;;;8.20;99.90;;;;;;5032265;28;20120;-63
2023/12/13 10:01:57;;;;;;;3.65;3.30;;;8.20;99.90;;;;;;5032331;28;20466;-63
2023/12/13 10:04:27;;;;;;;3.72;3.08;;;8.30;99.90;;;;;;5032357;28;20079;-63
2023/12/13 10:06:56;;;;;;;4.10;3.70;;;8.30;99.90;;;;;;5032177;28;20048;-64
2023/12/13 10:09:26;;;;;;;3.92;3.50;;;8.30;99.90;;;;;;5031898;28;20448;-64
2023/12/13 10:11:54;;;;;;;3.70;3.40;;;8.30;99.90;;;;;;5030613;28;20095;-64
2023/12/13 10:14:20;;;;;;;4.03;3.65;;;8.30;99.90;;;;;;5030968;28;20120;-64
2023/12/13 10:16:46;;;;;;;5.05;3.78;;;8.30;99.90;;;;;;5032158;28;20461;-64
2023/12/13 10:19:11;;;;;;;3.97;3.67;;;8.40;99.90;;;;;;5031794;28;20042;-63
2023/12/13 10:21:37;;;;;;;4.68;4.13;;;8.50;99.90;;;;;;5032090;28;20080;-64
2023/12/13 10:24:06;;;;;;;7.10;3.85;;;8.40;99.90;;;;;;5031808;28;20038;-64
2023/12/13 10:26:35;;;;;;;4.47;4.07;;;8.40;99.90;;;;;;5031793;28;20441;-64
2023/12/13 10:29:02;;;;;;;4.07;3.67;;;8.40;99.90;;;;;;5032040;28;20055;-64
2023/12/13 10:31:28;;;;;;;4.88;4.47;;;8.40;99.90;;;;;;5030758;28;20044;-64
2023/12/13 10:33:54;;;;;;;4.05;3.72;;;8.50;99.90;;;;;;5030675;28;20473;-64
2023/12/13 10:36:20;;;;;;;4.13;3.80;;;8.40;99.90;;;;;;5030245;28;20444;-64
2023/12/13 10:38:52;;;;;;;4.28;3.88;;;8.60;99.90;;;;;;5032117;28;20045;-64
2023/12/13 10:41:25;;;;;;;4.00;3.60;;;8.40;99.90;;;;;;5031985;28;20390;-64
2023/12/13 10:43:55;;;;;;;5.40;4.53;;;8.40;99.90;;;;;;5031915;28;20042;-64
2023/12/13 10:46:22;;;;;;;4.93;4.53;;;8.40;99.90;;;;;;5031544;28;20053;-64
2023/12/13 10:48:48;;;;;;;5.10;4.60;;;8.40;99.90;;;;;;5031943;28;20052;-64
2023/12/13 10:51:15;;;;;;;10.20;4.20;;;8.40;99.90;;;;;;5031923;28;20116;-64
2023/12/13 10:53:42;;;;;;;3.65;3.35;;;8.50;99.90;;;;;;5031801;28;20042;-64
2023/12/13 10:56:08;;;;;;;9.68;4.43;;;8.50;99.90;;;;;;5031873;28;20124;-64
2023/12/13 10:58:35;;;;;;;4.55;4.15;;;8.40;99.90;;;;;;5031803;28;20116;-63
2023/12/13 11:01:02;;;;;;;3.72;3.42;;;8.70;99.90;;;;;;5034087;28;20056;-64
2023/12/13 11:03:40;;;;;;;4.22;3.92;;;8.50;99.90;;;;;;5035189;28;20053;-64
2023/12/13 11:06:07;;;;;;;4.22;3.90;;;8.50;99.90;;;;;;5035399;28;20033;-64
2023/12/13 11:08:40;;;;;;;4.30;3.90;;;8.50;99.90;;;;;;5035412;28;20140;-64
2023/12/13 11:11:10;;;;;;;5.53;3.80;;;8.50;99.90;;;;;;5035112;28;20425;-64
2023/12/13 11:13:48;;;;;;;5.80;4.05;;;8.50;99.90;;;;;;5034089;28;20484;-64
2023/12/13 11:16:24;;;;;;;4.43;4.03;;;8.50;99.90;;;;;;5035533;28;20398;-64
2023/12/13 11:18:58;;;;;;;4.85;4.30;;;8.50;99.90;;;;;;5033571;28;20053;-64
2023/12/13 11:21:26;;;;;;;9.18;4.63;;;8.50;99.90;;;;;;5034876;28;20042;-64
2023/12/13 11:23:58;;;;;;;4.70;4.30;;;8.50;99.90;;;;;;5035116;28;20042;-64
2023/12/13 11:26:26;;;;;;;5.20;4.80;;;8.50;99.90;;;;;;5034967;28;20160;-64
2023/12/13 11:28:54;;;;;;;5.32;4.82;;;8.50;99.90;;;;;;5035067;28;20040;-64
2023/12/13 11:31:26;;;;;;;5.30;4.80;;;8.40;99.90;;;;;;5034999;28;20049;-64
2023/12/13 11:33:56;;;;;;;3.95;3.65;;;8.40;99.90;;;;;;5034939;28;20050;-64
2023/12/13 11:36:24;;;;;;;3.65;3.35;;;8.50;99.90;;;;;;5034550;28;20476;-63
2023/12/13 11:38:51;;;;;;;5.20;4.22;;;8.40;99.90;;;;;;5034911;28;20045;-64
2023/12/13 11:41:18;;;;;;;3.95;3.65;;;8.50;99.90;;;;;;5033241;28;20053;-63
2023/12/13 11:43:44;;;;;;;6.82;4.50;;;8.40;99.90;;;;;;5034724;28;20048;-63
2023/12/13 11:46:11;;;;;;;4.43;3.92;;;7.10;99.90;;;;;;5034661;28;20029;-63
2023/12/13 11:48:37;;;;;;;6.20;4.78;;;8.40;99.90;;;;;;5034650;28;20045;-63
2023/12/13 11:51:03;;;;;;;11.18;4.20;;;8.40;99.90;;;;;;5034869;28;20401;-65
2023/12/13 11:53:28;;;;;;;4.15;3.80;;;8.50;99.90;;;;;;5034499;28;20034;-65
2023/12/13 11:55:56;;;;;;;4.95;4.45;;;8.50;99.90;;;;;;5034338;28;20037;-64
2023/12/13 11:58:21;;;;;;;11.10;5.05;;;8.50;99.90;;;;;;5034465;28;20041;-64
2023/12/13 12:00:47;;;;;;;5.63;4.28;;;8.50;99.90;;;;;;5034422;28;20125;-65
2023/12/13 12:03:13;;;;;;;3.83;3.28;;;8.50;99.90;;;;;;5033134;28;20045;-65
2023/12/13 12:05:41;;;;;;;4.20;3.80;;;8.40;99.90;;;;;;5034418;28;20044;-65
2023/12/13 12:08:08;;;;;;;3.78;3.35;;;8.50;99.90;;;;;;5034311;28;20049;-65
2023/12/13 12:10:34;;;;;;;3.60;3.30;;;8.50;99.90;;;;;;5034256;28;20128;-65
2023/12/13 12:13:01;;;;;;;3.55;3.25;;;8.50;99.90;;;;;;5033339;28;20383;-65
2023/12/13 12:15:27;;;;;;;4.10;3.70;;;8.60;99.90;;;;;;5033985;28;20409;-65
2023/12/13 12:17:54;;;;;;;4.75;4.22;;;8.50;99.90;;;;;;5034175;28;20121;-65
2023/12/13 12:20:21;;;;;;;3.85;3.55;;;8.50;99.90;;;;;;5032828;28;20049;-65
2023/12/13 12:22:47;;;;;;;3.75;3.45;;;8.50;99.90;;;;;;5034066;28;20041;-65
2023/12/13 12:25:13;;;;;;;3.60;3.30;;;8.50;99.90;;;;;;5033982;28;20108;-65
2023/12/13 12:27:48;;;;;;;4.10;3.70;;;8.50;99.90;;;;;;5033583;28;20121;-65
2023/12/13 12:30:17;;;;;;;4.30;3.63;;;8.50;99.90;;;;;;5032634;28;20044;-65
2023/12/13 12:32:46;;;;;;;3.78;3.47;;;8.50;99.90;;;;;;5033813;28;20116;-65
2023/12/13 12:35:12;;;;;;;5.15;4.00;;;8.50;99.90;;;;;;5033360;28;20429;-65
2023/12/13 12:37:38;;;;;;;4.25;3.85;;;8.50;99.90;;;;;;5033442;28;20054;-65
2023/12/13 12:40:06;;;;;;;4.38;3.95;;;8.50;99.90;;;;;;5033665;28;20064;-67
2023/12/13 12:42:32;;;;;;;4.38;3.95;;;8.50;99.90;;;;;;5033637;28;20047;-66
2023/12/13 12:44:58;;;;;;;3.75;3.45;;;8.50;99.90;;;;;;5033673;28;20397;-65
2023/12/13 12:47:23;;;;;;;4.22;3.83;;;8.60;99.90;;;;;;5033427;28;20034;-64
2023/12/13 12:49:52;;;;;;;3.60;3.30;;;8.50;99.90;;;;;;5033557;28;20038;-65
2023/12/13 12:52:21;;;;;;;4.22;3.83;;;8.60;99.90;;;;;;5033519;28;20433;-65
2023/12/13 12:54:47;;;;;;;4.18;3.88;;;8.60;99.90;;;;;;5033357;28;20080;-65